sensor_id;sensor_type;location;lat;lon;timestamp;temperature;humidity
43581;DHT22;29175;51.030;4.606;2023-02-05T00:00:15;10.60;99.90
43581;DHT22;29175;51.030;4.606;2023-02-05T00:02:42;10.60;99.90
43581;DHT22;29175;51.030;4.606;2023-02-05T00:05:08;10.40;99.90
43581;DHT22;29175;51.030;4.606;2023-02-05T00:07:34;10.30;99.90
43581;DHT22;29175;51.030;4.606;2023-02-05T00:10:00;10.30;99.90
43581;DHT22;29175;51.030;4.606;2023-02-05T00:12:26;10.40;99.90
43581;DHT22;29175;51.030;4.606;2023-02-05T00:14:52;10.50;99.90
43581;DHT22;29175;51.030;4.606;2023-02-05T00:17:18;10.50;99.90
43581;DHT22;29175;51.030;4.606;2023-02-05T00:19:44;10.60;99.90
43581;DHT22;29175;51.030;4.606;2023-02-05T00:22:10;10.80;99.90
43581;DHT22;29175;51.030;4.606;2023-02-05T00:24:36;10.80;99.90
43581;DHT22;29175;51.030;4.606;2023-02-05T00:27:02;10.60;99.90
43581;DHT22;29175;51.030;4.606;2023-02-05T00:29:28;10.50;99.90
43581;DHT22;29175;51.030;4.606;2023-02-05T00:31:55;10.50;99.90
43581;DHT22;29175;51.030;4.606;2023-02-05T00:34:20;10.50;99.90
43581;DHT22;29175;51.030;4.606;2023-02-05T00:36:46;10.50;99.90
43581;DHT22;29175;51.030;4.606;2023-02-05T00:39:12;10.50;99.90
43581;DHT22;29175;51.030;4.606;2023-02-05T00:41:40;10.60;99.90
43581;DHT22;29175;51.030;4.606;2023-02-05T00:44:05;10.70;99.90
43581;DHT22;29175;51.030;4.606;2023-02-05T00:46:31;10.70;99.90
43581;DHT22;29175;51.030;4.606;2023-02-05T00:48:57;10.70;99.90
43581;DHT22;29175;51.030;4.606;2023-02-05T00:51:23;10.70;99.90
43581;DHT22;29175;51.030;4.606;2023-02-05T00:53:49;10.70;99.90
43581;DHT22;29175;51.030;4.606;2023-02-05T00:56:15;10.70;99.90
43581;DHT22;29175;51.030;4.606;2023-02-05T00:58:41;10.80;99.90
43581;DHT22;29175;51.030;4.606;2023-02-05T01:01:12;10.60;99.90
43581;DHT22;29175;51.030;4.606;2023-02-05T01:03:40;10.40;99.90
43581;DHT22;29175;51.030;4.606;2023-02-05T01:06:07;10.20;99.90
43581;DHT22;29175;51.030;4.606;2023-02-05T01:08:34;10.30;99.90
43581;DHT22;29175;51.030;4.606;2023-02-05T01:11:00;10.50;99.90
43581;DHT22;29175;51.030;4.606;2023-02-05T01:13:26;10.30;99.90
43581;DHT22;29175;51.030;4.606;2023-02-05T01:15:52;10.20;99.90
43581;DHT22;29175;51.030;4.606;2023-02-05T01:18:18;10.30;99.90
43581;DHT22;29175;51.030;4.606;2023-02-05T01:20:45;10.30;99.90
43581;DHT22;29175;51.030;4.606;2023-02-05T01:23:11;10.30;99.90
43581;DHT22;29175;51.030;4.606;2023-02-05T01:25:37;10.40;99.90
43581;DHT22;29175;51.030;4.606;2023-02-05T01:28:03;10.40;99.90
43581;DHT22;29175;51.030;4.606;2023-02-05T01:30:29;10.40;99.90
43581;DHT22;29175;51.030;4.606;2023-02-05T01:32:54;10.40;99.90
43581;DHT22;29175;51.030;4.606;2023-02-05T01:35:20;10.50;99.90
43581;DHT22;29175;51.030;4.606;2023-02-05T01:37:47;10.30;99.90
43581;DHT22;29175;51.030;4.606;2023-02-05T01:40:16;10.30;99.90
43581;DHT22;29175;51.030;4.606;2023-02-05T01:42:42;10.20;99.90
43581;DHT22;29175;51.030;4.606;2023-02-05T01:47:57;10.20;99.90
43581;DHT22;29175;51.030;4.606;2023-02-05T01:50:24;10.20;99.90
43581;DHT22;29175;51.030;4.606;2023-02-05T01:52:51;10.20;99.90
43581;DHT22;29175;51.030;4.606;2023-02-05T01:55:17;10.10;99.90
43581;DHT22;29175;51.030;4.606;2023-02-05T01:57:46;9.90;99.90
43581;DHT22;29175;51.030;4.606;2023-02-05T02:00:13;9.90;99.90
43581;DHT22;29175;51.030;4.606;2023-02-05T02:02:39;9.90;99.90
43581;DHT22;29175;51.030;4.606;2023-02-05T02:05:11;10.30;99.90
43581;DHT22;29175;51.030;4.606;2023-02-05T02:07:37;10.50;99.90
43581;DHT22;29175;51.030;4.606;2023-02-05T02:10:03;10.20;99.90
43581;DHT22;29175;51.030;4.606;2023-02-05T02:12:34;9.80;99.90
43581;DHT22;29175;51.030;4.606;2023-02-05T02:15:04;9.60;99.90
43581;DHT22;29175;51.030;4.606;2023-02-05T02:17:31;9.70;99.90
43581;DHT22;29175;51.030;4.606;2023-02-05T02:20:07;9.60;99.90
43581;DHT22;29175;51.030;4.606;2023-02-05T02:22:57;9.80;99.90
43581;DHT22;29175;51.030;4.606;2023-02-05T02:25:51;9.70;99.90
43581;DHT22;29175;51.030;4.606;2023-02-05T02:28:30;9.40;99.90
43581;DHT22;29175;51.030;4.606;2023-02-05T02:31:15;9.20;99.90
43581;DHT22;29175;51.030;4.606;2023-02-05T02:34:10;9.60;99.90
43581;DHT22;29175;51.030;4.606;2023-02-05T02:39:18;9.80;99.90
43581;DHT22;29175;51.030;4.606;2023-02-05T02:41:54;9.80;99.90
43581;DHT22;29175;51.030;4.606;2023-02-05T02:44:36;9.50;99.90
43581;DHT22;29175;51.030;4.606;2023-02-05T02:47:10;9.10;99.90
43581;DHT22;29175;51.030;4.606;2023-02-05T02:49:41;9.30;99.90
43581;DHT22;29175;51.030;4.606;2023-02-05T02:52:11;9.60;99.90
43581;DHT22;29175;51.030;4.606;2023-02-05T02:54:39;9.50;99.90
43581;DHT22;29175;51.030;4.606;2023-02-05T02:57:07;9.50;99.90
43581;DHT22;29175;51.030;4.606;2023-02-05T02:59:36;9.50;99.90
43581;DHT22;29175;51.030;4.606;2023-02-05T03:02:04;9.70;99.90
43581;DHT22;29175;51.030;4.606;2023-02-05T03:04:39;9.70;99.90
43581;DHT22;29175;51.030;4.606;2023-02-05T03:07:33;9.80;99.90
43581;DHT22;29175;51.030;4.606;2023-02-05T03:10:28;9.90;99.90
43581;DHT22;29175;51.030;4.606;2023-02-05T03:12:56;9.80;99.90
43581;DHT22;29175;51.030;4.606;2023-02-05T03:15:22;9.60;99.90
43581;DHT22;29175;51.030;4.606;2023-02-05T03:17:50;9.70;99.90
43581;DHT22;29175;51.030;4.606;2023-02-05T03:20:30;9.80;99.90
43581;DHT22;29175;51.030;4.606;2023-02-05T03:22:57;9.80;99.90
43581;DHT22;29175;51.030;4.606;2023-02-05T03:25:26;9.90;99.90
43581;DHT22;29175;51.030;4.606;2023-02-05T03:27:52;9.90;99.90
43581;DHT22;29175;51.030;4.606;2023-02-05T03:30:19;9.70;99.90
43581;DHT22;29175;51.030;4.606;2023-02-05T03:32:59;9.50;99.90
43581;DHT22;29175;51.030;4.606;2023-02-05T03:35:33;9.50;99.90
43581;DHT22;29175;51.030;4.606;2023-02-05T03:38:08;9.60;99.90
43581;DHT22;29175;51.030;4.606;2023-02-05T03:40:43;9.70;99.90
43581;DHT22;29175;51.030;4.606;2023-02-05T03:46:18;9.60;99.90
43581;DHT22;29175;51.030;4.606;2023-02-05T03:49:05;9.70;99.90
43581;DHT22;29175;51.030;4.606;2023-02-05T03:51:58;9.80;99.90
43581;DHT22;29175;51.030;4.606;2023-02-05T03:54:35;9.70;99.90
43581;DHT22;29175;51.030;4.606;2023-02-05T03:57:17;9.50;99.90
43581;DHT22;29175;51.030;4.606;2023-02-05T03:59:44;9.50;99.90
43581;DHT22;29175;51.030;4.606;2023-02-05T04:02:12;9.60;99.90
43581;DHT22;29175;51.030;4.606;2023-02-05T04:04:38;9.90;99.90
43581;DHT22;29175;51.030;4.606;2023-02-05T04:07:03;9.90;99.90
43581;DHT22;29175;51.030;4.606;2023-02-05T04:09:29;9.80;99.90
43581;DHT22;29175;51.030;4.606;2023-02-05T04:11:55;9.90;99.90
43581;DHT22;29175;51.030;4.606;2023-02-05T04:14:21;10.00;99.90
43581;DHT22;29175;51.030;4.606;2023-02-05T04:16:47;10.00;99.90
43581;DHT22;29175;51.030;4.606;2023-02-05T04:19:12;10.00;99.90
43581;DHT22;29175;51.030;4.606;2023-02-05T04:21:38;9.90;99.90
43581;DHT22;29175;51.030;4.606;2023-02-05T04:24:05;9.80;99.90
43581;DHT22;29175;51.030;4.606;2023-02-05T04:26:31;9.30;99.90
43581;DHT22;29175;51.030;4.606;2023-02-05T04:28:56;9.50;99.90
43581;DHT22;29175;51.030;4.606;2023-02-05T04:31:22;9.60;99.90
43581;DHT22;29175;51.030;4.606;2023-02-05T04:33:48;9.60;99.90
43581;DHT22;29175;51.030;4.606;2023-02-05T04:36:14;9.80;99.90
43581;DHT22;29175;51.030;4.606;2023-02-05T04:38:40;9.80;99.90
43581;DHT22;29175;51.030;4.606;2023-02-05T04:41:05;9.80;99.90
43581;DHT22;29175;51.030;4.606;2023-02-05T04:43:32;9.80;99.90
43581;DHT22;29175;51.030;4.606;2023-02-05T04:46:06;9.70;99.90
43581;DHT22;29175;51.030;4.606;2023-02-05T04:48:33;9.60;99.90
43581;DHT22;29175;51.030;4.606;2023-02-05T04:50:59;9.40;99.90
43581;DHT22;29175;51.030;4.606;2023-02-05T04:53:29;9.60;99.90
43581;DHT22;29175;51.030;4.606;2023-02-05T04:56:05;9.50;99.90
43581;DHT22;29175;51.030;4.606;2023-02-05T04:58:31;9.20;99.90
43581;DHT22;29175;51.030;4.606;2023-02-05T05:00:57;9.20;99.90
43581;DHT22;29175;51.030;4.606;2023-02-05T05:03:23;9.10;99.90
43581;DHT22;29175;51.030;4.606;2023-02-05T05:05:49;9.20;99.90
43581;DHT22;29175;51.030;4.606;2023-02-05T05:08:14;9.20;99.90
43581;DHT22;29175;51.030;4.606;2023-02-05T05:10:40;9.10;99.90
43581;DHT22;29175;51.030;4.606;2023-02-05T05:13:06;9.20;99.90
43581;DHT22;29175;51.030;4.606;2023-02-05T05:15:32;9.30;99.90
43581;DHT22;29175;51.030;4.606;2023-02-05T05:17:57;9.30;99.90
43581;DHT22;29175;51.030;4.606;2023-02-05T05:20:23;9.10;99.90
43581;DHT22;29175;51.030;4.606;2023-02-05T05:22:49;9.10;99.90
43581;DHT22;29175;51.030;4.606;2023-02-05T05:25:15;9.30;99.90
43581;DHT22;29175;51.030;4.606;2023-02-05T05:27:41;9.10;99.90
43581;DHT22;29175;51.030;4.606;2023-02-05T05:30:07;8.90;99.90
43581;DHT22;29175;51.030;4.606;2023-02-05T05:32:33;8.90;99.90
43581;DHT22;29175;51.030;4.606;2023-02-05T05:34:58;8.90;99.90
43581;DHT22;29175;51.030;4.606;2023-02-05T05:37:24;9.00;99.90
43581;DHT22;29175;51.030;4.606;2023-02-05T05:39:50;9.10;99.90
43581;DHT22;29175;51.030;4.606;2023-02-05T05:42:34;8.70;99.90
43581;DHT22;29175;51.030;4.606;2023-02-05T05:45:20;8.70;99.90
43581;DHT22;29175;51.030;4.606;2023-02-05T05:47:47;9.00;99.90
43581;DHT22;29175;51.030;4.606;2023-02-05T05:50:14;8.90;99.90
43581;DHT22;29175;51.030;4.606;2023-02-05T05:52:39;8.60;99.90
43581;DHT22;29175;51.030;4.606;2023-02-05T05:55:09;8.50;99.90
43581;DHT22;29175;51.030;4.606;2023-02-05T05:57:35;8.60;99.90
43581;DHT22;29175;51.030;4.606;2023-02-05T06:00:01;8.80;99.90
43581;DHT22;29175;51.030;4.606;2023-02-05T06:02:31;8.90;99.90
43581;DHT22;29175;51.030;4.606;2023-02-05T06:04:56;9.10;99.90
43581;DHT22;29175;51.030;4.606;2023-02-05T06:07:22;9.20;99.90
43581;DHT22;29175;51.030;4.606;2023-02-05T06:09:50;9.10;99.90
43581;DHT22;29175;51.030;4.606;2023-02-05T06:12:16;9.00;99.90
43581;DHT22;29175;51.030;4.606;2023-02-05T06:14:42;9.10;99.90
43581;DHT22;29175;51.030;4.606;2023-02-05T06:17:11;8.90;99.90
43581;DHT22;29175;51.030;4.606;2023-02-05T06:19:36;8.70;99.90
43581;DHT22;29175;51.030;4.606;2023-02-05T06:22:02;8.50;99.90
43581;DHT22;29175;51.030;4.606;2023-02-05T06:24:28;8.70;99.90
43581;DHT22;29175;51.030;4.606;2023-02-05T06:26:54;8.50;99.90
43581;DHT22;29175;51.030;4.606;2023-02-05T06:29:20;8.60;99.90
43581;DHT22;29175;51.030;4.606;2023-02-05T06:31:47;8.60;99.90
43581;DHT22;29175;51.030;4.606;2023-02-05T06:34:14;8.40;99.90
43581;DHT22;29175;51.030;4.606;2023-02-05T06:36:40;8.50;99.90
43581;DHT22;29175;51.030;4.606;2023-02-05T06:39:06;8.50;99.90
43581;DHT22;29175;51.030;4.606;2023-02-05T06:41:31;8.40;99.90
43581;DHT22;29175;51.030;4.606;2023-02-05T06:43:57;8.50;99.90
43581;DHT22;29175;51.030;4.606;2023-02-05T06:46:23;8.60;99.90
43581;DHT22;29175;51.030;4.606;2023-02-05T06:48:49;8.40;99.90
43581;DHT22;29175;51.030;4.606;2023-02-05T06:51:15;8.30;99.90
43581;DHT22;29175;51.030;4.606;2023-02-05T06:53:40;8.20;99.90
43581;DHT22;29175;51.030;4.606;2023-02-05T06:56:06;8.10;99.90
43581;DHT22;29175;51.030;4.606;2023-02-05T06:58:32;8.10;99.90
43581;DHT22;29175;51.030;4.606;2023-02-05T07:00:58;8.10;99.90
43581;DHT22;29175;51.030;4.606;2023-02-05T07:03:25;8.00;99.90
43581;DHT22;29175;51.030;4.606;2023-02-05T07:05:51;7.90;99.90
43581;DHT22;29175;51.030;4.606;2023-02-05T07:08:16;7.80;99.90
43581;DHT22;29175;51.030;4.606;2023-02-05T07:10:42;7.70;99.90
43581;DHT22;29175;51.030;4.606;2023-02-05T07:13:08;7.80;99.90
43581;DHT22;29175;51.030;4.606;2023-02-05T07:15:35;7.80;99.90
43581;DHT22;29175;51.030;4.606;2023-02-05T07:18:02;7.80;99.90
43581;DHT22;29175;51.030;4.606;2023-02-05T07:20:29;7.80;99.90
43581;DHT22;29175;51.030;4.606;2023-02-05T07:22:55;7.70;99.90
43581;DHT22;29175;51.030;4.606;2023-02-05T07:25:21;7.60;99.90
43581;DHT22;29175;51.030;4.606;2023-02-05T07:27:47;7.60;99.90
43581;DHT22;29175;51.030;4.606;2023-02-05T07:30:13;7.70;99.90
43581;DHT22;29175;51.030;4.606;2023-02-05T07:32:39;7.70;99.90
43581;DHT22;29175;51.030;4.606;2023-02-05T07:35:05;7.60;99.90
43581;DHT22;29175;51.030;4.606;2023-02-05T07:37:31;7.60;99.90
43581;DHT22;29175;51.030;4.606;2023-02-05T07:39:57;7.60;99.90
43581;DHT22;29175;51.030;4.606;2023-02-05T07:42:23;7.60;99.90
43581;DHT22;29175;51.030;4.606;2023-02-05T07:44:49;7.70;99.90
43581;DHT22;29175;51.030;4.606;2023-02-05T07:47:15;7.70;99.90
43581;DHT22;29175;51.030;4.606;2023-02-05T07:49:41;7.60;99.90
43581;DHT22;29175;51.030;4.606;2023-02-05T07:52:07;7.60;99.90
43581;DHT22;29175;51.030;4.606;2023-02-05T07:54:32;7.60;99.90
43581;DHT22;29175;51.030;4.606;2023-02-05T07:56:58;7.80;99.90
43581;DHT22;29175;51.030;4.606;2023-02-05T07:59:26;7.80;99.90
43581;DHT22;29175;51.030;4.606;2023-02-05T08:01:51;7.80;99.90
43581;DHT22;29175;51.030;4.606;2023-02-05T08:04:17;7.90;99.90
43581;DHT22;29175;51.030;4.606;2023-02-05T08:06:43;7.90;99.90
43581;DHT22;29175;51.030;4.606;2023-02-05T08:09:10;7.90;99.90
43581;DHT22;29175;51.030;4.606;2023-02-05T08:11:35;7.90;99.90
43581;DHT22;29175;51.030;4.606;2023-02-05T08:14:01;7.80;99.90
43581;DHT22;29175;51.030;4.606;2023-02-05T08:16:27;7.80;99.90
43581;DHT22;29175;51.030;4.606;2023-02-05T08:18:53;7.80;99.90
43581;DHT22;29175;51.030;4.606;2023-02-05T08:21:19;8.00;99.90
43581;DHT22;29175;51.030;4.606;2023-02-05T08:23:47;8.10;99.90
43581;DHT22;29175;51.030;4.606;2023-02-05T08:26:13;8.00;99.90
43581;DHT22;29175;51.030;4.606;2023-02-05T08:28:40;8.10;99.90
43581;DHT22;29175;51.030;4.606;2023-02-05T08:31:13;8.00;99.90
43581;DHT22;29175;51.030;4.606;2023-02-05T08:33:39;8.20;99.90
43581;DHT22;29175;51.030;4.606;2023-02-05T08:36:06;8.40;99.90
43581;DHT22;29175;51.030;4.606;2023-02-05T08:38:32;8.60;99.90
43581;DHT22;29175;51.030;4.606;2023-02-05T08:41:02;8.60;99.90
43581;DHT22;29175;51.030;4.606;2023-02-05T08:43:28;8.60;99.90
43581;DHT22;29175;51.030;4.606;2023-02-05T08:45:54;8.40;99.90
43581;DHT22;29175;51.030;4.606;2023-02-05T08:48:20;8.30;99.90
43581;DHT22;29175;51.030;4.606;2023-02-05T08:50:45;8.40;99.90
43581;DHT22;29175;51.030;4.606;2023-02-05T08:53:11;8.70;99.90
43581;DHT22;29175;51.030;4.606;2023-02-05T08:55:37;9.00;99.90
43581;DHT22;29175;51.030;4.606;2023-02-05T08:58:03;9.20;99.90
43581;DHT22;29175;51.030;4.606;2023-02-05T09:00:30;9.50;99.90
43581;DHT22;29175;51.030;4.606;2023-02-05T09:02:57;9.50;99.90
43581;DHT22;29175;51.030;4.606;2023-02-05T09:05:23;9.40;99.90
43581;DHT22;29175;51.030;4.606;2023-02-05T09:07:49;9.30;99.90
43581;DHT22;29175;51.030;4.606;2023-02-05T09:10:15;9.10;99.90
43581;DHT22;29175;51.030;4.606;2023-02-05T09:12:41;8.90;99.90
43581;DHT22;29175;51.030;4.606;2023-02-05T09:15:07;8.60;99.90
43581;DHT22;29175;51.030;4.606;2023-02-05T09:17:33;8.40;99.90
43581;DHT22;29175;51.030;4.606;2023-02-05T09:19:59;8.40;99.90
43581;DHT22;29175;51.030;4.606;2023-02-05T09:22:25;8.30;99.90
43581;DHT22;29175;51.030;4.606;2023-02-05T09:24:51;8.20;99.90
43581;DHT22;29175;51.030;4.606;2023-02-05T09:27:17;8.20;99.90
43581;DHT22;29175;51.030;4.606;2023-02-05T09:29:43;8.30;99.90
43581;DHT22;29175;51.030;4.606;2023-02-05T09:32:09;8.70;99.90
43581;DHT22;29175;51.030;4.606;2023-02-05T09:34:34;8.90;99.90
43581;DHT22;29175;51.030;4.606;2023-02-05T09:37:00;9.00;99.90
43581;DHT22;29175;51.030;4.606;2023-02-05T09:39:26;9.20;99.90
43581;DHT22;29175;51.030;4.606;2023-02-05T09:45:15;9.50;99.90
43581;DHT22;29175;51.030;4.606;2023-02-05T09:50:22;9.40;99.90
43581;DHT22;29175;51.030;4.606;2023-02-05T09:53:03;9.20;99.90
43581;DHT22;29175;51.030;4.606;2023-02-05T09:55:36;9.40;99.90
43581;DHT22;29175;51.030;4.606;2023-02-05T09:58:11;9.70;99.90
43581;DHT22;29175;51.030;4.606;2023-02-05T10:00:56;9.60;99.90
43581;DHT22;29175;51.030;4.606;2023-02-05T10:11:36;9.40;99.90
43581;DHT22;29175;51.030;4.606;2023-02-05T10:22:27;9.60;99.90
43581;DHT22;29175;51.030;4.606;2023-02-05T10:31:07;9.60;99.90
43581;DHT22;29175;51.030;4.606;2023-02-05T10:33:50;9.40;99.90
43581;DHT22;29175;51.030;4.606;2023-02-05T10:36:22;9.50;99.90
43581;DHT22;29175;51.030;4.606;2023-02-05T10:38:50;9.70;99.90
43581;DHT22;29175;51.030;4.606;2023-02-05T10:46:44;10.10;99.90
43581;DHT22;29175;51.030;4.606;2023-02-05T10:49:55;10.00;99.90
43581;DHT22;29175;51.030;4.606;2023-02-05T10:52:22;9.70;99.90
43581;DHT22;29175;51.030;4.606;2023-02-05T10:54:48;9.70;99.90
43581;DHT22;29175;51.030;4.606;2023-02-05T10:57:20;9.90;99.90
43581;DHT22;29175;51.030;4.606;2023-02-05T10:59:53;10.00;99.90
43581;DHT22;29175;51.030;4.606;2023-02-05T11:02:21;9.90;99.90
43581;DHT22;29175;51.030;4.606;2023-02-05T11:04:48;9.80;99.90
43581;DHT22;29175;51.030;4.606;2023-02-05T11:07:36;9.60;99.90
43581;DHT22;29175;51.030;4.606;2023-02-05T11:10:24;9.80;99.90
43581;DHT22;29175;51.030;4.606;2023-02-05T11:12:56;9.70;99.90
43581;DHT22;29175;51.030;4.606;2023-02-05T11:15:26;9.90;99.90
43581;DHT22;29175;51.030;4.606;2023-02-05T11:17:59;10.30;99.90
43581;DHT22;29175;51.030;4.606;2023-02-05T11:20:37;11.20;99.90
43581;DHT22;29175;51.030;4.606;2023-02-05T11:25:34;11.80;99.90
43581;DHT22;29175;51.030;4.606;2023-02-05T11:28:03;12.00;99.90
43581;DHT22;29175;51.030;4.606;2023-02-05T11:32:57;12.70;99.90
43581;DHT22;29175;51.030;4.606;2023-02-05T11:35:30;12.30;99.90
43581;DHT22;29175;51.030;4.606;2023-02-05T11:38:09;11.60;99.90
43581;DHT22;29175;51.030;4.606;2023-02-05T11:40:40;11.40;99.90
43581;DHT22;29175;51.030;4.606;2023-02-05T11:43:16;11.90;99.90
43581;DHT22;29175;51.030;4.606;2023-02-05T11:45:48;12.10;99.90
43581;DHT22;29175;51.030;4.606;2023-02-05T11:48:43;11.90;99.90
43581;DHT22;29175;51.030;4.606;2023-02-05T11:51:13;12.20;99.90
43581;DHT22;29175;51.030;4.606;2023-02-05T11:53:59;12.50;99.90
43581;DHT22;29175;51.030;4.606;2023-02-05T11:56:27;12.40;99.90
43581;DHT22;29175;51.030;4.606;2023-02-05T11:59:05;11.90;99.90
43581;DHT22;29175;51.030;4.606;2023-02-05T12:01:40;11.70;99.90
43581;DHT22;29175;51.030;4.606;2023-02-05T12:09:18;12.10;99.90
43581;DHT22;29175;51.030;4.606;2023-02-05T12:17:51;11.70;99.90
43581;DHT22;29175;51.030;4.606;2023-02-05T12:20:22;11.90;99.90
43581;DHT22;29175;51.030;4.606;2023-02-05T12:23:02;12.30;99.90
43581;DHT22;29175;51.030;4.606;2023-02-05T12:34:21;11.90;99.90
43581;DHT22;29175;51.030;4.606;2023-02-05T12:58:14;10.40;99.90
43581;DHT22;29175;51.030;4.606;2023-02-05T13:03:35;10.50;99.90
43581;DHT22;29175;51.030;4.606;2023-02-05T13:11:22;10.30;99.90
43581;DHT22;29175;51.030;4.606;2023-02-05T13:14:00;10.10;99.90
43581;DHT22;29175;51.030;4.606;2023-02-05T13:16:44;10.10;99.90
43581;DHT22;29175;51.030;4.606;2023-02-05T13:19:32;10.20;99.90
43581;DHT22;29175;51.030;4.606;2023-02-05T13:22:03;10.10;99.90
43581;DHT22;29175;51.030;4.606;2023-02-05T13:24:57;9.90;99.90
43581;DHT22;29175;51.030;4.606;2023-02-05T13:27:47;9.90;99.90
43581;DHT22;29175;51.030;4.606;2023-02-05T13:30:53;10.00;99.90
43581;DHT22;29175;51.030;4.606;2023-02-05T13:33:20;9.90;99.90
43581;DHT22;29175;51.030;4.606;2023-02-05T13:36:18;9.90;99.90
43581;DHT22;29175;51.030;4.606;2023-02-05T13:47:35;10.10;99.90
43581;DHT22;29175;51.030;4.606;2023-02-05T13:50:37;10.10;99.90
43581;DHT22;29175;51.030;4.606;2023-02-05T13:58:24;9.80;99.90
43581;DHT22;29175;51.030;4.606;2023-02-05T14:01:40;9.90;99.90
43581;DHT22;29175;51.030;4.606;2023-02-05T14:04:04;10.10;99.90
43581;DHT22;29175;51.030;4.606;2023-02-05T14:06:35;10.20;99.90
43581;DHT22;29175;51.030;4.606;2023-02-05T14:09:16;10.20;99.90
43581;DHT22;29175;51.030;4.606;2023-02-05T14:12:00;10.20;99.90
43581;DHT22;29175;51.030;4.606;2023-02-05T14:14:34;10.20;99.90
43581;DHT22;29175;51.030;4.606;2023-02-05T14:17:50;10.20;99.90
43581;DHT22;29175;51.030;4.606;2023-02-05T14:25:00;9.90;99.90
43581;DHT22;29175;51.030;4.606;2023-02-05T14:29:55;9.90;99.90
43581;DHT22;29175;51.030;4.606;2023-02-05T14:35:39;10.20;99.90
43581;DHT22;29175;51.030;4.606;2023-02-05T14:37:46;10.30;99.90
43581;DHT22;29175;51.030;4.606;2023-02-05T14:40:34;10.20;99.90
43581;DHT22;29175;51.030;4.606;2023-02-05T14:43:24;10.40;99.90
43581;DHT22;29175;51.030;4.606;2023-02-05T14:45:52;10.40;99.90
43581;DHT22;29175;51.030;4.606;2023-02-05T14:48:20;10.40;99.90
43581;DHT22;29175;51.030;4.606;2023-02-05T14:51:00;10.20;99.90
43581;DHT22;29175;51.030;4.606;2023-02-05T14:53:27;10.20;99.90
43581;DHT22;29175;51.030;4.606;2023-02-05T14:55:54;9.90;99.90
43581;DHT22;29175;51.030;4.606;2023-02-05T14:58:34;9.80;99.90
43581;DHT22;29175;51.030;4.606;2023-02-05T15:01:28;9.80;99.90
43581;DHT22;29175;51.030;4.606;2023-02-05T15:03:57;9.70;99.90
43581;DHT22;29175;51.030;4.606;2023-02-05T15:06:24;9.70;99.90
43581;DHT22;29175;51.030;4.606;2023-02-05T15:19:44;10.00;99.90
43581;DHT22;29175;51.030;4.606;2023-02-05T15:24:48;9.50;99.90
43581;DHT22;29175;51.030;4.606;2023-02-05T15:27:20;9.20;99.90
43581;DHT22;29175;51.030;4.606;2023-02-05T15:29:51;9.10;99.90
43581;DHT22;29175;51.030;4.606;2023-02-05T15:32:24;9.00;99.90
43581;DHT22;29175;51.030;4.606;2023-02-05T15:35:01;9.10;99.90
43581;DHT22;29175;51.030;4.606;2023-02-05T15:37:35;9.10;99.90
43581;DHT22;29175;51.030;4.606;2023-02-05T15:42:38;9.10;99.90
43581;DHT22;29175;51.030;4.606;2023-02-05T15:48:19;9.00;99.90
43581;DHT22;29175;51.030;4.606;2023-02-05T15:50:53;9.10;99.90
43581;DHT22;29175;51.030;4.606;2023-02-05T15:55:58;9.50;99.90
43581;DHT22;29175;51.030;4.606;2023-02-05T15:58:25;9.60;99.90
43581;DHT22;29175;51.030;4.606;2023-02-05T16:00:52;9.60;99.90
43581;DHT22;29175;51.030;4.606;2023-02-05T16:03:32;9.70;99.90
43581;DHT22;29175;51.030;4.606;2023-02-05T16:05:59;9.60;99.90
43581;DHT22;29175;51.030;4.606;2023-02-05T16:08:26;9.50;99.90
43581;DHT22;29175;51.030;4.606;2023-02-05T16:10:57;9.40;99.90
43581;DHT22;29175;51.030;4.606;2023-02-05T16:13:27;9.40;99.90
43581;DHT22;29175;51.030;4.606;2023-02-05T16:16:08;9.40;99.90
43581;DHT22;29175;51.030;4.606;2023-02-05T16:18:48;9.40;99.90
43581;DHT22;29175;51.030;4.606;2023-02-05T16:21:17;9.20;99.90
43581;DHT22;29175;51.030;4.606;2023-02-05T16:23:56;8.90;99.90
43581;DHT22;29175;51.030;4.606;2023-02-05T16:26:55;8.90;99.90
43581;DHT22;29175;51.030;4.606;2023-02-05T16:29:26;8.80;99.90
43581;DHT22;29175;51.030;4.606;2023-02-05T16:32:00;8.70;99.90
43581;DHT22;29175;51.030;4.606;2023-02-05T16:34:29;8.60;99.90
43581;DHT22;29175;51.030;4.606;2023-02-05T16:37:02;8.40;99.90
43581;DHT22;29175;51.030;4.606;2023-02-05T16:39:35;8.30;99.90
43581;DHT22;29175;51.030;4.606;2023-02-05T16:42:07;8.20;99.90
43581;DHT22;29175;51.030;4.606;2023-02-05T16:44:38;8.10;99.90
43581;DHT22;29175;51.030;4.606;2023-02-05T16:47:18;8.10;99.90
43581;DHT22;29175;51.030;4.606;2023-02-05T16:49:46;8.20;99.90
43581;DHT22;29175;51.030;4.606;2023-02-05T16:52:33;8.20;99.90
43581;DHT22;29175;51.030;4.606;2023-02-05T16:57:55;8.00;99.90
43581;DHT22;29175;51.030;4.606;2023-02-05T17:00:27;7.90;99.90
43581;DHT22;29175;51.030;4.606;2023-02-05T17:02:57;7.70;99.90
43581;DHT22;29175;51.030;4.606;2023-02-05T17:05:29;7.70;99.90
43581;DHT22;29175;51.030;4.606;2023-02-05T17:07:58;7.70;99.90
43581;DHT22;29175;51.030;4.606;2023-02-05T17:10:25;7.80;99.90
43581;DHT22;29175;51.030;4.606;2023-02-05T17:13:00;7.80;99.90
43581;DHT22;29175;51.030;4.606;2023-02-05T17:15:38;7.70;99.90
43581;DHT22;29175;51.030;4.606;2023-02-05T17:18:29;7.60;99.90
43581;DHT22;29175;51.030;4.606;2023-02-05T17:21:18;7.50;99.90
43581;DHT22;29175;51.030;4.606;2023-02-05T17:23:49;7.40;99.90
43581;DHT22;29175;51.030;4.606;2023-02-05T17:26:16;7.50;99.90
43581;DHT22;29175;51.030;4.606;2023-02-05T17:28:44;7.40;99.90
43581;DHT22;29175;51.030;4.606;2023-02-05T17:31:11;7.50;99.90
43581;DHT22;29175;51.030;4.606;2023-02-05T17:33:38;7.70;99.90
43581;DHT22;29175;51.030;4.606;2023-02-05T17:36:04;7.70;99.90
43581;DHT22;29175;51.030;4.606;2023-02-05T17:38:30;7.50;99.90
43581;DHT22;29175;51.030;4.606;2023-02-05T17:40:56;7.40;99.90
43581;DHT22;29175;51.030;4.606;2023-02-05T17:43:40;7.30;99.90
43581;DHT22;29175;51.030;4.606;2023-02-05T17:46:13;7.30;99.90
43581;DHT22;29175;51.030;4.606;2023-02-05T17:48:39;7.50;99.90
43581;DHT22;29175;51.030;4.606;2023-02-05T17:51:05;7.50;99.90
43581;DHT22;29175;51.030;4.606;2023-02-05T17:53:31;7.30;99.90
43581;DHT22;29175;51.030;4.606;2023-02-05T17:55:56;7.30;99.90
43581;DHT22;29175;51.030;4.606;2023-02-05T17:58:22;7.30;99.90
43581;DHT22;29175;51.030;4.606;2023-02-05T18:00:48;7.30;99.90
43581;DHT22;29175;51.030;4.606;2023-02-05T18:03:14;7.20;99.90
43581;DHT22;29175;51.030;4.606;2023-02-05T18:05:39;7.10;99.90
43581;DHT22;29175;51.030;4.606;2023-02-05T18:08:05;7.10;99.90
43581;DHT22;29175;51.030;4.606;2023-02-05T18:10:31;7.10;99.90
43581;DHT22;29175;51.030;4.606;2023-02-05T18:12:57;7.00;99.90
43581;DHT22;29175;51.030;4.606;2023-02-05T18:15:24;7.00;99.90
43581;DHT22;29175;51.030;4.606;2023-02-05T18:17:50;7.00;99.90
43581;DHT22;29175;51.030;4.606;2023-02-05T18:20:17;6.90;99.90
43581;DHT22;29175;51.030;4.606;2023-02-05T18:22:45;6.90;99.90
43581;DHT22;29175;51.030;4.606;2023-02-05T18:25:11;6.90;99.90
43581;DHT22;29175;51.030;4.606;2023-02-05T18:27:37;6.90;99.90